Time,TemperatureF,DewpointF,PressureIn,WindDirection,WindDirectionDegrees,WindSpeedMPH,WindSpeedGustMPH,Humidity,HourlyPrecipIn,Conditions,Clouds,dailyrainin,SoftwareType,DateUTC
2014-03-24 00:05:00,36.7,27.0,30.44,WNW,298,0.0,3.0,68,0.00,,,0.00,weatherlink.com 1.10,2014-03-24 04:05:00,
2014-03-24 00:20:00,36.4,27.0,30.44,SSW,205,0.0,2.0,68,0.00,,,0.00,weatherlink.com 1.10,2014-03-24 04:20:00,
2014-03-24 00:35:00,36.1,27.0,30.45,SW,229,0.0,2.0,69,0.00,,,0.00,weatherlink.com 1.10,2014-03-24 04:35:00,
2014-03-24 00:50:00,35.8,26.0,30.44,WSW,239,0.0,1.0,67,0.00,,,0.00,weatherlink.com 1.10,2014-03-24 04:50:00,
2014-03-24 01:05:00,35.4,25.0,30.44,WSW,248,0.0,2.0,67,0.00,,,0.00,weatherlink.com 1.10,2014-03-24 05:05:00,
2014-03-24 01:20:00,35.0,25.0,30.43,East,97,0.0,1.0,66,0.00,,,0.00,weatherlink.com 1.10,2014-03-24 05:20:00,
2014-03-24 01:35:00,34.3,24.0,30.44,ESE,104,0.0,1.0,66,0.00,,,0.00,weatherlink.com 1.10,2014-03-24 05:35:00,
2014-03-24 01:50:00,33.9,24.0,30.44,ESE,105,0.0,0.0,66,0.00,,,0.00,weatherlink.com 1.10,2014-03-24 05:50:00,
2014-03-24 02:04:00,33.9,24.0,30.44,ESE,106,0.0,0.0,66,0.00,,,0.00,weatherlink.com 1.10,2014-03-24 06:04:00,
2014-03-24 02:20:00,33.7,23.0,30.44,ESE,106,0.0,0.0,65,0.00,,,0.00,weatherlink.com 1.10,2014-03-24 06:20:00,
2014-03-24 02:35:00,33.0,23.0,30.44,ENE,73,1.0,2.0,67,0.00,,,0.00,weatherlink.com 1.10,2014-03-24 06:35:00,
2014-03-24 02:50:00,32.9,23.0,30.44,ENE,71,1.0,1.0,68,0.00,,,0.00,weatherlink.com 1.10,2014-03-24 06:50:00,
2014-03-24 03:05:00,32.6,23.0,30.43,ENE,70,2.0,2.0,67,0.00,,,0.00,weatherlink.com 1.10,2014-03-24 07:05:00,
2014-03-24 03:20:00,32.3,22.0,30.43,ENE,78,1.0,2.0,67,0.00,,,0.00,weatherlink.com 1.10,2014-03-24 07:20:00,
2014-03-24 03:35:00,32.2,22.0,30.44,ENE,78,0.0,1.0,67,0.00,,,0.00,weatherlink.com 1.10,2014-03-24 07:35:00,
2014-03-24 03:50:00,31.9,22.0,30.45,SW,218,0.0,0.0,68,0.00,,,0.00,weatherlink.com 1.10,2014-03-24 07:50:00,
2014-03-24 04:05:00,31.4,22.0,30.45,SW,222,0.0,0.0,69,0.00,,,0.00,weatherlink.com 1.10,2014-03-24 08:05:00,
2014-03-24 04:21:00,31.2,22.0,30.45,SW,224,0.0,0.0,69,0.00,,,0.00,weatherlink.com 1.10,2014-03-24 08:21:00,
2014-03-24 04:36:00,30.6,22.0,30.45,SW,222,0.0,0.0,71,0.00,,,0.00,weatherlink.com 1.10,2014-03-24 08:36:00,
2014-03-24 04:51:00,30.5,22.0,30.45,SW,236,0.0,0.0,72,0.00,,,0.00,weatherlink.com 1.10,2014-03-24 08:51:00,
2014-03-24 05:05:00,30.1,23.0,30.45,SW,236,0.0,0.0,75,0.00,,,0.00,weatherlink.com 1.10,2014-03-24 09:05:00,
2014-03-24 05:20:00,30.0,23.0,30.45,SW,236,0.0,0.0,75,0.00,,,0.00,weatherlink.com 1.10,2014-03-24 09:20:00,
2014-03-24 05:36:00,29.6,22.0,30.46,WSW,237,0.0,0.0,74,0.00,,,0.00,weatherlink.com 1.10,2014-03-24 09:36:00,
2014-03-24 05:51:00,29.7,23.0,30.47,SW,236,0.0,0.0,75,0.00,,,0.00,weatherlink.com 1.10,2014-03-24 09:51:00,
2014-03-24 06:05:00,29.8,22.0,30.47,SW,236,0.0,0.0,74,0.00,,,0.00,weatherlink.com 1.10,2014-03-24 10:05:00,
2014-03-24 06:21:00,29.8,22.0,30.47,SW,236,0.0,0.0,72,0.00,,,0.00,weatherlink.com 1.10,2014-03-24 10:21:00,
2014-03-24 06:35:00,29.8,22.0,30.48,SW,236,0.0,0.0,73,0.00,,,0.00,weatherlink.com 1.10,2014-03-24 10:35:00,
2014-03-24 06:50:00,29.3,23.0,30.48,SW,236,0.0,0.0,76,0.00,,,0.00,weatherlink.com 1.10,2014-03-24 10:50:00,
2014-03-24 07:05:00,29.3,23.0,30.49,SW,236,0.0,0.0,76,0.00,,,0.00,weatherlink.com 1.10,2014-03-24 11:05:00,
2014-03-24 07:20:00,29.2,23.0,30.49,SW,236,0.0,0.0,76,0.00,,,0.00,weatherlink.com 1.10,2014-03-24 11:20:00,
2014-03-24 07:36:00,29.2,22.0,30.50,SW,236,0.0,0.0,75,0.00,,,0.00,weatherlink.com 1.10,2014-03-24 11:36:00,
2014-03-24 07:50:00,29.3,22.0,30.50,SW,236,0.0,0.0,74,0.00,,,0.00,weatherlink.com 1.10,2014-03-24 11:50:00,
2014-03-24 08:05:00,29.5,20.0,30.51,SW,236,0.0,0.0,68,0.00,,,0.00,weatherlink.com 1.10,2014-03-24 12:05:00,
2014-03-24 08:21:00,29.5,22.0,30.52,WSW,237,0.0,0.0,72,0.00,,,0.00,weatherlink.com 1.10,2014-03-24 12:21:00,
2014-03-24 08:36:00,29.2,22.0,30.53,SW,236,0.0,0.0,74,0.00,,,0.00,weatherlink.com 1.10,2014-03-24 12:36:00,
2014-03-24 08:51:00,31.3,24.0,30.53,SW,236,0.0,0.0,73,0.00,,,0.00,weatherlink.com 1.10,2014-03-24 12:51:00,
2014-03-24 09:06:00,33.9,24.0,30.54,SW,236,0.0,0.0,66,0.00,,,0.00,weatherlink.com 1.10,2014-03-24 13:06:00,
2014-03-24 09:21:00,35.2,26.0,30.54,SW,224,0.0,1.0,68,0.00,,,0.00,weatherlink.com 1.10,2014-03-24 13:21:00,
2014-03-24 09:35:00,36.5,25.0,30.54,SW,225,0.0,0.0,64,0.00,,,0.00,weatherlink.com 1.10,2014-03-24 13:35:00,
2014-03-24 09:51:00,37.6,26.0,30.54,SW,225,0.0,1.0,63,0.00,,,0.00,weatherlink.com 1.10,2014-03-24 13:51:00,
2014-03-24 10:06:00,37.3,25.0,30.54,SW,235,0.0,0.0,62,0.00,,,0.00,weatherlink.com 1.10,2014-03-24 14:06:00,
2014-03-24 10:21:00,37.8,25.0,30.54,WSW,256,1.0,3.0,60,0.00,,,0.00,weatherlink.com 1.10,2014-03-24 14:21:00,
2014-03-24 10:36:00,38.9,25.0,30.53,SW,235,0.0,3.0,59,0.00,,,0.00,weatherlink.com 1.10,2014-03-24 14:36:00,
2014-03-24 10:51:00,40.3,27.0,30.53,WSW,243,3.0,3.0,60,0.00,,,0.00,weatherlink.com 1.10,2014-03-24 14:51:00,
2014-03-24 11:06:00,41.9,25.0,30.53,WSW,258,0.0,3.0,52,0.00,,,0.00,weatherlink.com 1.10,2014-03-24 15:06:00,
2014-03-24 11:21:00,43.5,23.0,30.52,SW,215,0.0,4.0,44,0.00,,,0.00,weatherlink.com 1.10,2014-03-24 15:21:00,
2014-03-24 11:36:00,45.1,25.0,30.52,West,259,3.0,5.0,46,0.00,,,0.00,weatherlink.com 1.10,2014-03-24 15:36:00,
2014-03-24 11:52:00,45.3,22.0,30.51,WSW,256,1.0,7.0,40,0.00,,,0.00,weatherlink.com 1.10,2014-03-24 15:52:00,
2014-03-24 12:06:00,46.0,23.0,30.51,WSW,253,5.0,8.0,40,0.00,,,0.00,weatherlink.com 1.10,2014-03-24 16:06:00,
2014-03-24 12:22:00,47.8,24.0,30.50,SW,236,4.0,7.0,39,0.00,,,0.00,weatherlink.com 1.10,2014-03-24 16:22:00,
2014-03-24 12:36:00,48.3,22.0,30.49,WSW,249,1.0,5.0,36,0.00,,,0.00,weatherlink.com 1.10,2014-03-24 16:36:00,
2014-03-24 12:51:00,49.9,23.0,30.48,WSW,253,4.0,7.0,35,0.00,,,0.00,weatherlink.com 1.10,2014-03-24 16:51:00,
2014-03-24 13:07:00,51.4,24.0,30.48,WSW,256,0.0,7.0,34,0.00,,,0.00,weatherlink.com 1.10,2014-03-24 17:07:00,
2014-03-24 13:22:00,51.8,21.0,30.47,SW,232,4.0,6.0,30,0.00,,,0.00,weatherlink.com 1.10,2014-03-24 17:22:00,
2014-03-24 13:37:00,53.6,19.0,30.46,WSW,257,4.0,7.0,26,0.00,,,0.00,weatherlink.com 1.10,2014-03-24 17:37:00,
2014-03-24 13:51:00,54.4,20.0,30.45,West,259,1.0,6.0,26,0.00,,,0.00,weatherlink.com 1.10,2014-03-24 17:51:00,
2014-03-24 14:07:00,54.4,24.0,30.45,West,264,4.0,10.0,31,0.00,,,0.00,weatherlink.com 1.10,2014-03-24 18:07:00,
2014-03-24 14:21:00,54.0,23.0,30.44,SW,232,7.0,9.0,30,0.00,,,0.00,weatherlink.com 1.10,2014-03-24 18:21:00,
2014-03-24 14:36:00,53.5,23.0,30.43,SSE,149,2.0,8.0,31,0.00,,,0.00,weatherlink.com 1.10,2014-03-24 18:36:00,
2014-03-24 14:52:00,54.4,23.0,30.42,ENE,72,0.0,6.0,29,0.00,,,0.00,weatherlink.com 1.10,2014-03-24 18:52:00,
2014-03-24 15:07:00,54.9,23.0,30.41,WSW,249,2.0,10.0,29,0.00,,,0.00,weatherlink.com 1.10,2014-03-24 19:07:00,
2014-03-24 15:22:00,54.7,22.0,30.40,SW,215,2.0,7.0,28,0.00,,,0.00,weatherlink.com 1.10,2014-03-24 19:22:00,
2014-03-24 15:37:00,56.7,23.0,30.39,WSW,253,0.0,6.0,27,0.00,,,0.00,weatherlink.com 1.10,2014-03-24 19:37:00,
2014-03-24 15:52:00,56.8,22.0,30.39,WSW,249,3.0,7.0,26,0.00,,,0.00,weatherlink.com 1.10,2014-03-24 19:52:00,
2014-03-24 16:07:00,57.0,23.0,30.38,West,259,6.0,8.0,27,0.00,,,0.00,weatherlink.com 1.10,2014-03-24 20:07:00,
2014-03-24 16:22:00,56.0,23.0,30.37,WSW,257,0.0,7.0,28,0.00,,,0.00,weatherlink.com 1.10,2014-03-24 20:22:00,
2014-03-24 16:37:00,58.2,25.0,30.36,WSW,255,0.0,4.0,28,0.00,,,0.00,weatherlink.com 1.10,2014-03-24 20:37:00,
2014-03-24 16:52:00,56.2,22.0,30.35,SW,226,3.0,9.0,27,0.00,,,0.00,weatherlink.com 1.10,2014-03-24 20:52:00,
2014-03-24 17:07:00,55.5,22.0,30.35,SW,224,0.0,8.0,27,0.00,,,0.00,weatherlink.com 1.10,2014-03-24 21:07:00,
2014-03-24 17:22:00,55.0,21.0,30.34,WSW,256,2.0,3.0,27,0.00,,,0.00,weatherlink.com 1.10,2014-03-24 21:22:00,
2014-03-24 17:37:00,55.2,21.0,30.33,SW,229,3.0,9.0,26,0.00,,,0.00,weatherlink.com 1.10,2014-03-24 21:37:00,
2014-03-24 17:52:00,54.3,21.0,30.32,WSW,242,3.0,5.0,27,0.00,,,0.00,weatherlink.com 1.10,2014-03-24 21:52:00,
2014-03-24 18:07:00,54.0,23.0,30.32,WSW,252,3.0,7.0,30,0.00,,,0.00,weatherlink.com 1.10,2014-03-24 22:07:00,
2014-03-24 18:22:00,52.8,27.0,30.32,WSW,255,4.0,6.0,37,0.00,,,0.00,weatherlink.com 1.10,2014-03-24 22:22:00,
2014-03-24 18:37:00,51.5,28.0,30.33,WSW,243,3.0,8.0,40,0.00,,,0.00,weatherlink.com 1.10,2014-03-24 22:37:00,
2014-03-24 18:52:00,51.0,23.0,30.33,WSW,250,2.0,4.0,33,0.00,,,0.00,weatherlink.com 1.10,2014-03-24 22:52:00,
2014-03-24 19:07:00,50.3,23.0,30.33,WSW,253,1.0,7.0,34,0.00,,,0.00,weatherlink.com 1.10,2014-03-24 23:07:00,
2014-03-24 19:22:00,49.8,23.0,30.33,WSW,253,1.0,3.0,35,0.00,,,0.00,weatherlink.com 1.10,2014-03-24 23:22:00,
2014-03-24 19:37:00,49.1,23.0,30.33,WSW,240,2.0,2.0,36,0.00,,,0.00,weatherlink.com 1.10,2014-03-24 23:37:00,
2014-03-24 19:52:00,48.4,24.0,30.34,WSW,250,4.0,4.0,38,0.00,,,0.00,weatherlink.com 1.10,2014-03-24 23:52:00,
2014-03-24 20:08:00,47.7,24.0,30.33,WSW,248,2.0,5.0,40,0.00,,,0.00,weatherlink.com 1.10,2014-03-25 00:08:00,
2014-03-24 20:23:00,46.9,24.0,30.33,WSW,246,3.0,3.0,41,0.00,,,0.00,weatherlink.com 1.10,2014-03-25 00:23:00,
2014-03-24 20:38:00,46.4,24.0,30.33,SW,228,0.0,5.0,42,0.00,,,0.00,weatherlink.com 1.10,2014-03-25 00:38:00,
2014-03-24 20:53:00,45.7,25.0,30.34,SW,219,2.0,3.0,44,0.00,,,0.00,weatherlink.com 1.10,2014-03-25 00:53:00,
2014-03-24 21:08:00,45.3,24.0,30.34,WSW,246,2.0,3.0,44,0.00,,,0.00,weatherlink.com 1.10,2014-03-25 01:08:00,
2014-03-24 21:23:00,44.7,24.0,30.34,West,259,2.0,2.0,45,0.00,,,0.00,weatherlink.com 1.10,2014-03-25 01:23:00,
2014-03-24 21:38:00,44.3,25.0,30.35,SW,231,2.0,2.0,47,0.00,,,0.00,weatherlink.com 1.10,2014-03-25 01:38:00,
2014-03-24 21:53:00,44.0,24.0,30.35,SW,229,2.0,2.0,46,0.00,,,0.00,weatherlink.com 1.10,2014-03-25 01:53:00,
2014-03-24 22:08:00,44.1,23.0,30.35,SW,236,2.0,2.0,44,0.00,,,0.00,weatherlink.com 1.10,2014-03-25 02:08:00,
2014-03-24 22:23:00,44.0,23.0,30.35,SW,224,1.0,2.0,44,0.00,,,0.00,weatherlink.com 1.10,2014-03-25 02:23:00,
2014-03-24 22:38:00,43.7,24.0,30.35,WSW,243,0.0,2.0,46,0.00,,,0.00,weatherlink.com 1.10,2014-03-25 02:38:00,
2014-03-24 22:53:00,43.4,23.0,30.35,WSW,242,0.0,0.0,45,0.00,,,0.00,weatherlink.com 1.10,2014-03-25 02:53:00,
2014-03-24 23:08:00,43.1,23.0,30.34,WSW,241,0.0,0.0,45,0.00,,,0.00,weatherlink.com 1.10,2014-03-25 03:08:00,
2014-03-24 23:23:00,43.0,22.0,30.34,WSW,241,0.0,0.0,44,0.00,,,0.00,weatherlink.com 1.10,2014-03-25 03:23:00,
2014-03-24 23:38:00,42.9,25.0,30.34,WSW,250,0.0,1.0,50,0.00,,,0.00,weatherlink.com 1.10,2014-03-25 03:38:00,
2014-03-24 23:53:00,43.5,28.0,30.33,WSW,250,0.0,6.0,54,0.00,,,0.00,weatherlink.com 1.10,2014-03-25 03:53:00,